createdAt,value
2023-12-18T00:01:10.727Z,11.98
2023-12-18T00:03:37.383Z,10.75
2023-12-18T00:06:04.519Z,11.85
2023-12-18T00:08:31.006Z,11.30
2023-12-18T00:10:57.631Z,11.95
2023-12-18T00:13:24.116Z,12.05
2023-12-18T00:15:50.601Z,12.95
2023-12-18T00:18:17.341Z,12.60
2023-12-18T00:20:43.870Z,11.85
2023-12-18T00:23:10.545Z,11.80
2023-12-18T00:25:37.031Z,12.40
2023-12-18T00:28:03.883Z,11.15
2023-12-18T00:30:30.629Z,11.10
2023-12-18T00:32:57.290Z,10.23
2023-12-18T00:35:24.117Z,9.18
2023-12-18T00:37:50.731Z,8.25
2023-12-18T00:40:17.189Z,8.90
2023-12-18T00:42:44.001Z,8.90
2023-12-18T00:45:10.552Z,8.27
2023-12-18T00:47:37.110Z,8.85
2023-12-18T00:50:07.670Z,8.95
2023-12-18T00:52:36.160Z,9.15
2023-12-18T00:55:03.950Z,10.40
2023-12-18T00:57:30.470Z,9.50
2023-12-18T00:59:57.149Z,8.80
2023-12-18T01:02:23.667Z,10.23
2023-12-18T01:04:50.161Z,9.25
2023-12-18T01:07:16.801Z,10.27
2023-12-18T01:09:43.487Z,10.07
2023-12-18T01:12:10.284Z,9.63
2023-12-18T01:14:37.092Z,10.40
2023-12-18T01:17:03.623Z,9.70
2023-12-18T01:19:30.731Z,9.07
2023-12-18T01:21:57.241Z,9.18
2023-12-18T01:24:25.974Z,9.13
2023-12-18T01:26:52.588Z,8.75
2023-12-18T01:29:19.033Z,9.40
2023-12-18T01:31:45.517Z,9.63
2023-12-18T01:34:12.289Z,10.80
2023-12-18T01:36:38.968Z,10.75
2023-12-18T01:39:05.597Z,10.38
2023-12-18T01:41:32.228Z,10.60
2023-12-18T01:43:58.762Z,9.98
2023-12-18T01:46:26.144Z,10.57
2023-12-18T01:48:53.602Z,9.38
2023-12-18T01:51:21.461Z,9.45
2023-12-18T01:53:49.945Z,9.63
2023-12-18T01:56:21.503Z,10.77
2023-12-18T01:58:48.116Z,10.85
2023-12-18T02:01:15.056Z,10.15
2023-12-18T02:03:42.357Z,10.50
2023-12-18T02:06:09.107Z,11.15
2023-12-18T02:08:36.188Z,11.45
2023-12-18T02:11:02.918Z,10.18
2023-12-18T02:13:29.470Z,10.45
2023-12-18T02:15:56.010Z,9.32
2023-12-18T02:18:22.752Z,9.43
2023-12-18T02:20:49.359Z,9.48
2023-12-18T02:23:15.880Z,10.55
2023-12-18T02:25:42.500Z,10.32
2023-12-18T02:28:11.517Z,9.55
2023-12-18T02:30:38.251Z,9.52
2023-12-18T02:33:05.392Z,11.45
2023-12-18T02:35:32.008Z,11.63
2023-12-18T02:37:58.712Z,11.57
2023-12-18T02:40:26.413Z,10.20
2023-12-18T02:42:53.620Z,11.43
2023-12-18T02:45:20.318Z,12.07
2023-12-18T02:47:47.225Z,12.25
2023-12-18T02:50:14.365Z,11.57
2023-12-18T02:52:40.988Z,11.77
2023-12-18T02:55:08.539Z,12.57
2023-12-18T02:57:35.025Z,12.32
2023-12-18T03:00:01.793Z,11.15
2023-12-18T03:02:28.410Z,11.38
2023-12-18T03:04:54.951Z,11.07
2023-12-18T03:07:21.690Z,11.35
2023-12-18T03:09:48.238Z,10.40
2023-12-18T03:12:14.825Z,10.60
2023-12-18T03:14:41.429Z,11.02
2023-12-18T03:17:07.954Z,10.70
2023-12-18T03:19:34.871Z,10.73
2023-12-18T03:22:01.668Z,10.82
2023-12-18T03:24:28.150Z,10.68
2023-12-18T03:26:54.758Z,11.57
2023-12-18T03:29:21.514Z,10.75
2023-12-18T03:31:48.232Z,10.10
2023-12-18T03:34:14.829Z,11.00
2023-12-18T03:36:41.427Z,11.93
2023-12-18T03:39:08.050Z,11.93
2023-12-18T03:41:34.487Z,10.70
2023-12-18T03:44:00.925Z,10.52
2023-12-18T03:46:27.481Z,11.43
2023-12-18T03:48:54.068Z,11.32
2023-12-18T03:51:20.826Z,11.18
2023-12-18T03:53:47.297Z,10.82
2023-12-18T03:56:13.716Z,10.80
2023-12-18T03:58:40.342Z,11.43
2023-12-18T04:01:06.975Z,12.50
2023-12-18T04:03:34.545Z,12.45
2023-12-18T04:06:01.851Z,10.93
2023-12-18T04:08:28.365Z,12.73
2023-12-18T04:10:54.816Z,12.35
2023-12-18T04:13:21.589Z,11.73
2023-12-18T04:15:48.467Z,12.70
2023-12-18T04:18:15.128Z,12.60
2023-12-18T04:20:41.835Z,12.57
2023-12-18T04:23:08.405Z,13.80
2023-12-18T04:25:35.582Z,13.13
2023-12-18T04:28:02.179Z,12.70
2023-12-18T04:30:56.720Z,12.27
2023-12-18T04:33:23.788Z,13.02
2023-12-18T04:35:50.390Z,12.13
2023-12-18T04:38:17.784Z,12.80
2023-12-18T04:40:44.276Z,12.70
2023-12-18T04:43:10.875Z,12.38
2023-12-18T04:45:37.440Z,11.55
2023-12-18T04:48:04.452Z,12.75
2023-12-18T04:50:31.203Z,10.43
2023-12-18T04:52:57.701Z,11.95
2023-12-18T04:55:24.270Z,11.52
2023-12-18T04:57:50.784Z,11.27
2023-12-18T05:00:17.592Z,10.07
2023-12-18T05:02:44.283Z,9.98
2023-12-18T05:05:11.164Z,10.38
2023-12-18T05:07:37.679Z,9.43
2023-12-18T05:10:04.525Z,10.10
2023-12-18T05:12:31.264Z,9.93
2023-12-18T05:14:59.463Z,10.50
2023-12-18T05:17:28.993Z,8.93
2023-12-18T05:19:55.469Z,10.07
2023-12-18T05:22:22.160Z,10.63
2023-12-18T05:24:48.737Z,10.65
2023-12-18T05:27:15.386Z,10.55
2023-12-18T05:29:42.009Z,11.02
2023-12-18T05:32:08.566Z,11.45
2023-12-18T05:34:35.428Z,10.43
2023-12-18T05:37:03.331Z,10.45
2023-12-18T05:39:29.988Z,11.32
2023-12-18T05:41:56.686Z,11.40
2023-12-18T05:44:23.233Z,11.65
2023-12-18T05:46:49.923Z,11.75
2023-12-18T05:49:19.433Z,11.20
2023-12-18T05:51:46.167Z,11.65
2023-12-18T05:54:12.790Z,11.63
2023-12-18T05:56:39.479Z,11.82
2023-12-18T05:59:05.971Z,11.52
2023-12-18T06:01:32.522Z,11.75
2023-12-18T06:03:59.268Z,11.77
2023-12-18T06:06:25.845Z,11.82
2023-12-18T06:08:52.501Z,11.85
2023-12-18T06:11:19.004Z,10.52
2023-12-18T06:13:45.831Z,11.55
2023-12-18T06:16:12.380Z,11.15
2023-12-18T06:18:39.709Z,10.73
2023-12-18T06:21:07.167Z,11.40
2023-12-18T06:23:33.829Z,10.48
2023-12-18T06:26:03.373Z,10.68
2023-12-18T06:28:30.398Z,10.77
2023-12-18T06:30:57.607Z,11.02
2023-12-18T06:33:24.424Z,11.82
2023-12-18T06:35:51.193Z,10.93
2023-12-18T06:38:17.794Z,11.18
2023-12-18T06:40:44.317Z,11.65
2023-12-18T06:43:10.938Z,11.50
2023-12-18T06:45:37.434Z,11.05
2023-12-18T06:48:10.412Z,11.48
2023-12-18T06:50:37.009Z,12.70
2023-12-18T06:53:03.540Z,13.23
2023-12-18T06:55:30.463Z,11.88
2023-12-18T06:57:56.991Z,11.90
2023-12-18T07:00:35.674Z,13.73
2023-12-18T07:03:07.787Z,12.77
2023-12-18T07:05:34.624Z,13.32
2023-12-18T07:08:01.366Z,12.52
2023-12-18T07:10:28.034Z,14.38
2023-12-18T07:12:54.824Z,14.38
2023-12-18T07:15:25.223Z,12.50
2023-12-18T07:17:52.710Z,12.95
2023-12-18T07:20:19.493Z,12.98
2023-12-18T07:22:46.812Z,13.35
2023-12-18T07:25:13.277Z,14.02
2023-12-18T07:27:40.164Z,13.35
2023-12-18T07:30:07.244Z,12.15
2023-12-18T07:32:34.377Z,12.70
2023-12-18T07:35:02.530Z,12.77
2023-12-18T07:37:29.994Z,11.40
2023-12-18T07:39:57.260Z,12.48
2023-12-18T07:42:24.673Z,12.10
2023-12-18T07:44:54.238Z,11.35
2023-12-18T07:47:20.772Z,14.02
2023-12-18T07:49:50.864Z,12.02
2023-12-18T07:52:18.428Z,12.20
2023-12-18T07:54:45.199Z,12.30
2023-12-18T07:57:12.077Z,11.23
2023-12-18T07:59:40.812Z,12.15
2023-12-18T08:02:08.540Z,10.48
2023-12-18T08:04:36.452Z,12.60
2023-12-18T08:07:04.404Z,12.85
2023-12-18T08:09:31.148Z,10.80
2023-12-18T08:11:58.317Z,11.70
2023-12-18T08:14:24.969Z,12.73
2023-12-18T08:16:52.160Z,10.88
2023-12-18T08:19:19.274Z,10.32
2023-12-18T08:21:45.994Z,10.10
2023-12-18T08:24:12.616Z,10.13
2023-12-18T08:26:39.252Z,9.73
2023-12-18T08:29:07.818Z,10.13
2023-12-18T08:31:35.770Z,9.63
2023-12-18T08:34:02.612Z,10.15
2023-12-18T08:36:31.471Z,9.65
2023-12-18T08:38:58.024Z,10.43
2023-12-18T08:41:24.625Z,9.68
2023-12-18T08:43:58.671Z,9.70
2023-12-18T08:46:32.183Z,10.60
2023-12-18T08:48:59.131Z,11.13
2023-12-18T08:51:25.698Z,11.02
2023-12-18T08:53:52.954Z,10.20
2023-12-18T08:56:19.616Z,8.93
2023-12-18T08:58:46.477Z,9.38
2023-12-18T09:01:13.199Z,9.68
2023-12-18T09:03:39.825Z,8.18
2023-12-18T09:06:06.572Z,7.38
2023-12-18T09:08:40.988Z,8.20
2023-12-18T09:11:09.113Z,8.02
2023-12-18T09:13:39.509Z,8.07
2023-12-18T09:16:06.921Z,8.23
2023-12-18T09:18:34.283Z,9.55
2023-12-18T09:21:01.680Z,8.15
2023-12-18T09:23:29.637Z,8.00
2023-12-18T09:25:56.822Z,7.93
2023-12-18T09:28:23.606Z,6.22
2023-12-18T09:30:50.341Z,7.78
2023-12-18T09:33:17.200Z,7.43
2023-12-18T09:35:44.343Z,6.35
2023-12-18T09:38:10.927Z,7.13
2023-12-18T09:40:37.740Z,8.60
2023-12-18T09:43:05.173Z,7.72
2023-12-18T09:45:32.374Z,8.57
2023-12-18T09:47:59.906Z,8.60
2023-12-18T09:50:26.770Z,8.23
2023-12-18T09:53:08.130Z,7.18
2023-12-18T09:55:35.974Z,8.48
2023-12-18T09:58:03.763Z,9.10
2023-12-18T10:00:30.466Z,7.90
2023-12-18T10:02:59.737Z,7.55
2023-12-18T10:05:27.161Z,9.10
2023-12-18T10:07:55.048Z,7.50
2023-12-18T10:10:22.320Z,7.10
2023-12-18T10:12:49.193Z,8.77
2023-12-18T10:15:15.866Z,9.05
2023-12-18T10:17:43.626Z,6.70
2023-12-18T10:20:11.620Z,7.75
2023-12-18T10:22:40.335Z,7.25
2023-12-18T10:25:07.458Z,7.53
2023-12-18T10:27:35.099Z,6.80
2023-12-18T10:30:01.941Z,6.55
2023-12-18T10:32:28.986Z,6.72
2023-12-18T10:34:56.866Z,6.90
2023-12-18T10:37:26.692Z,6.80
2023-12-18T10:39:56.203Z,7.72
2023-12-18T10:42:32.972Z,7.38
2023-12-18T10:45:03.148Z,7.35
2023-12-18T10:47:32.215Z,7.72
2023-12-18T10:50:02.119Z,7.28
2023-12-18T10:52:33.293Z,7.50
2023-12-18T10:55:08.940Z,8.63
2023-12-18T10:57:38.413Z,7.38
2023-12-18T11:00:09.530Z,7.05
2023-12-18T11:02:39.184Z,6.80
2023-12-18T11:05:07.348Z,7.63
2023-12-18T11:07:34.544Z,6.72
2023-12-18T11:10:01.605Z,7.40
2023-12-18T11:12:29.280Z,7.13
2023-12-18T11:15:17.337Z,6.68
2023-12-18T11:18:29.335Z,6.15
2023-12-18T11:20:58.751Z,5.47
2023-12-18T11:23:28.384Z,5.30
2023-12-18T11:25:56.127Z,5.78
2023-12-18T11:28:26.340Z,6.18
2023-12-18T11:31:01.593Z,5.47
2023-12-18T11:33:36.102Z,5.13
2023-12-18T11:36:11.354Z,5.32
2023-12-18T11:38:37.981Z,5.00
2023-12-18T11:41:04.958Z,5.63
2023-12-18T11:43:42.387Z,4.40
2023-12-18T11:46:18.310Z,5.10
2023-12-18T11:48:47.719Z,4.32
2023-12-18T11:51:15.043Z,4.63
2023-12-18T11:53:41.800Z,4.68
2023-12-18T11:56:13.228Z,4.88
2023-12-18T11:58:45.430Z,4.57
2023-12-18T12:01:13.733Z,5.07
2023-12-18T12:03:41.543Z,5.13
2023-12-18T12:06:09.653Z,4.45
2023-12-18T12:09:02.816Z,4.55
2023-12-18T12:11:29.533Z,4.72
2023-12-18T12:13:56.146Z,5.00
2023-12-18T12:16:23.221Z,4.90
2023-12-18T12:18:52.277Z,4.85
2023-12-18T12:21:19.600Z,4.32
2023-12-18T12:23:48.537Z,5.47
2023-12-18T12:26:17.794Z,5.07
2023-12-18T12:28:44.416Z,4.93
2023-12-18T12:31:11.729Z,4.85
2023-12-18T12:33:42.615Z,4.20
2023-12-18T12:36:10.163Z,3.90
2023-12-18T12:38:44.830Z,4.40
2023-12-18T12:41:11.838Z,3.90
2023-12-18T12:43:38.467Z,4.50
2023-12-18T12:46:06.916Z,4.10
2023-12-18T12:48:36.392Z,5.05
2023-12-18T12:51:03.575Z,3.83
2023-12-18T12:53:31.851Z,3.78
2023-12-18T12:56:00.188Z,4.55
2023-12-18T12:58:26.933Z,4.45
2023-12-18T13:00:53.543Z,4.25
2023-12-18T13:03:20.871Z,3.97
2023-12-18T13:05:48.417Z,4.18
2023-12-18T13:08:15.138Z,3.70
2023-12-18T13:10:41.615Z,4.05
2023-12-18T13:13:09.118Z,4.35
2023-12-18T13:15:36.693Z,4.20
2023-12-18T13:18:03.605Z,3.88
2023-12-18T13:20:30.521Z,4.05
2023-12-18T13:22:57.595Z,3.45
2023-12-18T13:25:24.473Z,4.22
2023-12-18T13:27:52.023Z,3.75
2023-12-18T13:30:18.901Z,4.30
2023-12-18T13:32:46.164Z,3.35
2023-12-18T13:35:13.115Z,3.38
2023-12-18T13:37:39.980Z,3.80
2023-12-18T13:40:07.189Z,4.65
2023-12-18T13:42:33.805Z,4.65
2023-12-18T13:45:03.066Z,4.05
2023-12-18T13:47:30.344Z,4.10
2023-12-18T13:49:57.188Z,4.32
2023-12-18T13:52:25.732Z,4.32
2023-12-18T13:54:52.854Z,4.25
2023-12-18T13:57:19.927Z,4.68
2023-12-18T13:59:46.493Z,4.45
2023-12-18T14:02:13.169Z,4.45
2023-12-18T14:04:39.737Z,5.03
2023-12-18T14:07:07.136Z,4.55
2023-12-18T14:09:33.692Z,4.20
2023-12-18T14:12:00.399Z,4.18
2023-12-18T14:14:26.982Z,4.05
2023-12-18T14:16:53.610Z,4.18
2023-12-18T14:19:20.174Z,3.47
2023-12-18T14:21:46.813Z,4.07
2023-12-18T14:24:14.862Z,2.85
2023-12-18T14:26:42.562Z,2.97
2023-12-18T14:29:09.081Z,3.40
2023-12-18T14:31:35.641Z,3.70
2023-12-18T14:34:02.535Z,3.60
2023-12-18T14:36:30.476Z,4.00
2023-12-18T14:38:57.144Z,3.88
2023-12-18T14:41:24.420Z,4.40
2023-12-18T14:43:51.169Z,4.72
2023-12-18T14:46:17.892Z,3.67
2023-12-18T14:48:44.763Z,3.70
2023-12-18T14:51:11.537Z,4.47
2023-12-18T14:53:38.584Z,4.00
2023-12-18T14:56:06.019Z,3.88
2023-12-18T14:58:35.430Z,4.38
2023-12-18T15:01:02.162Z,4.37
2023-12-18T15:03:28.870Z,4.38
2023-12-18T15:05:55.712Z,4.60
2023-12-18T15:08:22.312Z,4.40
2023-12-18T15:10:49.005Z,4.30
2023-12-18T15:13:15.543Z,4.68
2023-12-18T15:15:42.253Z,5.10
2023-12-18T15:18:08.910Z,5.03
2023-12-18T15:20:35.569Z,4.55
2023-12-18T15:23:02.174Z,4.68
2023-12-18T15:25:28.654Z,4.85
2023-12-18T15:27:56.313Z,5.10
2023-12-18T15:30:24.239Z,4.45
2023-12-18T15:32:51.389Z,4.60
2023-12-18T15:35:19.961Z,4.88
2023-12-18T15:37:46.725Z,5.35
2023-12-18T15:40:13.505Z,5.68
2023-12-18T15:42:41.102Z,5.75
2023-12-18T15:45:08.634Z,5.18
2023-12-18T15:47:35.338Z,5.32
2023-12-18T15:50:02.486Z,5.40
2023-12-18T15:52:29.265Z,5.70
2023-12-18T15:54:56.072Z,4.95
2023-12-18T15:57:25.292Z,5.38
2023-12-18T15:59:52.356Z,5.47
2023-12-18T16:02:19.872Z,5.45
2023-12-18T16:04:46.685Z,5.13
2023-12-18T16:07:13.726Z,6.32
2023-12-18T16:09:40.380Z,5.47
2023-12-18T16:12:07.555Z,6.20
2023-12-18T16:14:36.144Z,5.93
2023-12-18T16:17:04.179Z,5.82
2023-12-18T16:19:30.742Z,5.78
2023-12-18T16:21:57.469Z,6.88
2023-12-18T16:24:24.077Z,6.13
2023-12-18T16:26:50.741Z,6.50
2023-12-18T16:29:17.347Z,6.75
2023-12-18T16:31:44.259Z,6.68
2023-12-18T16:34:11.197Z,7.90
2023-12-18T16:36:38.135Z,7.32
2023-12-18T16:39:05.093Z,6.90
2023-12-18T16:41:33.960Z,8.13
2023-12-18T16:44:00.755Z,7.20
2023-12-18T16:46:32.694Z,7.47
2023-12-18T16:49:06.675Z,7.90
2023-12-18T16:51:33.558Z,7.85
2023-12-18T16:54:00.237Z,7.72
2023-12-18T16:56:26.787Z,8.63
2023-12-18T16:58:53.308Z,8.40
2023-12-18T17:01:23.077Z,7.80
2023-12-18T17:03:50.645Z,8.05
2023-12-18T17:06:18.096Z,8.43
2023-12-18T17:08:44.722Z,9.00
2023-12-18T17:11:12.065Z,8.48
2023-12-18T17:13:39.036Z,9.45
2023-12-18T17:16:06.086Z,8.93
2023-12-18T17:18:32.840Z,9.25
2023-12-18T17:21:01.932Z,9.50
2023-12-18T17:23:28.564Z,8.43
2023-12-18T17:25:55.275Z,10.27
2023-12-18T17:28:24.377Z,9.68
2023-12-18T17:30:51.362Z,7.68
2023-12-18T17:33:19.955Z,8.20
2023-12-18T17:35:46.795Z,9.15
2023-12-18T17:38:13.421Z,8.13
2023-12-18T17:40:39.930Z,8.00
2023-12-18T17:43:06.819Z,9.57
2023-12-18T17:45:33.344Z,8.68
2023-12-18T17:48:00.158Z,8.90
2023-12-18T17:50:26.726Z,9.45
2023-12-18T17:52:53.464Z,9.73
2023-12-18T17:55:20.610Z,8.68
2023-12-18T17:57:47.569Z,8.82
2023-12-18T18:00:14.904Z,9.80
2023-12-18T18:02:42.595Z,9.40
2023-12-18T18:05:10.681Z,9.35
2023-12-18T18:07:40.269Z,9.15
2023-12-18T18:10:08.595Z,9.95
2023-12-18T18:12:35.178Z,9.48
2023-12-18T18:15:02.122Z,10.13
2023-12-18T18:17:28.796Z,9.60
2023-12-18T18:19:55.625Z,9.48
2023-12-18T18:22:22.248Z,9.52
2023-12-18T18:24:49.272Z,9.43
2023-12-18T18:27:17.397Z,10.35
2023-12-18T18:29:45.862Z,10.82
2023-12-18T18:32:12.654Z,10.00
2023-12-18T18:34:40.730Z,11.02
2023-12-18T18:37:07.505Z,10.75
2023-12-18T18:39:34.053Z,10.85
2023-12-18T18:42:00.701Z,10.75
2023-12-18T18:44:27.214Z,10.52
2023-12-18T18:46:54.487Z,10.07
2023-12-18T18:49:21.300Z,9.32
2023-12-18T18:51:47.986Z,10.07
2023-12-18T18:54:14.643Z,9.85
2023-12-18T18:56:41.542Z,10.18
2023-12-18T18:59:08.434Z,11.02
2023-12-18T19:01:37.959Z,10.30
2023-12-18T19:04:05.867Z,14.60
2023-12-18T19:06:32.590Z,10.88
2023-12-18T19:08:59.301Z,10.75
2023-12-18T19:11:26.837Z,10.52
2023-12-18T19:13:53.910Z,11.27
2023-12-18T19:16:20.581Z,10.10
2023-12-18T19:18:47.442Z,9.52
2023-12-18T19:21:14.076Z,12.13
2023-12-18T19:23:40.900Z,10.68
2023-12-18T19:26:07.409Z,10.80
2023-12-18T19:28:33.867Z,11.20
2023-12-18T19:31:03.957Z,10.32
2023-12-18T19:33:31.384Z,10.50
2023-12-18T19:36:00.003Z,11.68
2023-12-18T19:38:26.770Z,11.23
2023-12-18T19:40:53.859Z,10.60
2023-12-18T19:43:20.396Z,10.88
2023-12-18T19:45:47.076Z,11.48
2023-12-18T19:48:13.695Z,12.40
2023-12-18T19:50:40.529Z,10.30
2023-12-18T19:53:09.298Z,11.07
2023-12-18T19:55:36.281Z,10.73
2023-12-18T19:58:03.791Z,11.50
2023-12-18T20:00:30.599Z,11.68
2023-12-18T20:02:57.273Z,11.63
2023-12-18T20:05:24.124Z,11.50
2023-12-18T20:07:51.818Z,11.32
2023-12-18T20:10:18.482Z,11.25
2023-12-18T20:12:45.450Z,12.02
2023-12-18T20:15:12.928Z,10.75
2023-12-18T20:17:39.759Z,11.50
2023-12-18T20:20:06.768Z,10.73
2023-12-18T20:22:33.603Z,11.10
2023-12-18T20:25:00.312Z,11.70
2023-12-18T20:27:28.802Z,12.00
2023-12-18T20:29:55.654Z,12.50
2023-12-18T20:32:22.188Z,11.52
2023-12-18T20:34:48.981Z,11.85
2023-12-18T20:37:15.590Z,11.68
2023-12-18T20:39:42.237Z,11.02
2023-12-18T20:42:08.933Z,11.43
2023-12-18T20:44:35.467Z,11.93
2023-12-18T20:47:04.955Z,11.88
2023-12-18T20:49:33.077Z,12.20
2023-12-18T20:51:59.832Z,13.82
2023-12-18T20:54:26.410Z,12.50
2023-12-18T20:56:53.122Z,13.52
2023-12-18T20:59:19.608Z,12.57
2023-12-18T21:01:46.567Z,14.27
2023-12-18T21:04:13.318Z,15.35
2023-12-18T21:07:08.557Z,13.32
2023-12-18T21:09:36.481Z,14.35
2023-12-18T21:12:05.063Z,12.38
2023-12-18T21:14:35.315Z,12.30
2023-12-18T21:17:02.703Z,12.50
2023-12-18T21:19:30.038Z,12.90
2023-12-18T21:21:57.988Z,12.57
2023-12-18T21:24:25.625Z,12.68
2023-12-18T21:26:52.552Z,12.82
2023-12-18T21:29:19.032Z,13.27
2023-12-18T21:31:45.653Z,11.07
2023-12-18T21:34:12.223Z,12.55
2023-12-18T21:36:39.473Z,11.27
2023-12-18T21:39:07.020Z,12.02
2023-12-18T21:41:33.723Z,11.30
2023-12-18T21:44:00.657Z,12.80
2023-12-18T21:46:27.280Z,11.00
2023-12-18T21:48:54.477Z,11.43
2023-12-18T21:51:27.537Z,11.55
2023-12-18T21:54:01.410Z,11.43
2023-12-18T21:56:27.983Z,10.13
2023-12-18T21:58:54.528Z,10.82
2023-12-18T22:01:21.489Z,11.25
2023-12-18T22:03:48.195Z,10.63
2023-12-18T22:06:14.980Z,11.25
2023-12-18T22:08:41.499Z,11.18
2023-12-18T22:11:08.215Z,10.70
2023-12-18T22:13:34.797Z,10.95
2023-12-18T22:16:01.575Z,11.10
2023-12-18T22:18:28.189Z,9.88
2023-12-18T22:21:04.099Z,11.70
2023-12-18T22:23:35.032Z,10.80
2023-12-18T22:26:01.546Z,11.82
2023-12-18T22:28:28.188Z,12.30
2023-12-18T22:30:55.459Z,11.00
2023-12-18T22:33:22.324Z,12.15
2023-12-18T22:35:48.863Z,12.55
2023-12-18T22:38:15.366Z,12.15
2023-12-18T22:40:42.630Z,12.20
2023-12-18T22:43:09.331Z,11.13
2023-12-18T22:45:36.067Z,11.07
2023-12-18T22:48:02.757Z,12.90
2023-12-18T22:50:30.862Z,11.75
2023-12-18T22:52:57.378Z,11.35
2023-12-18T22:55:24.948Z,11.50
2023-12-18T22:57:51.775Z,12.18
2023-12-18T23:00:23.979Z,12.05
2023-12-18T23:02:50.622Z,13.23
2023-12-18T23:05:17.165Z,11.65
2023-12-18T23:07:43.912Z,11.55
2023-12-18T23:10:10.892Z,12.13
2023-12-18T23:12:37.435Z,12.65
2023-12-18T23:15:04.468Z,11.35
2023-12-18T23:17:32.089Z,12.05
2023-12-18T23:19:58.902Z,13.05
2023-12-18T23:22:25.797Z,11.00
2023-12-18T23:24:53.149Z,12.23
2023-12-18T23:27:19.832Z,12.57
2023-12-18T23:29:46.298Z,11.43
2023-12-18T23:32:13.132Z,11.75
2023-12-18T23:34:39.773Z,11.57
2023-12-18T23:37:15.963Z,11.73
2023-12-18T23:39:42.544Z,11.07
2023-12-18T23:42:09.094Z,11.30
2023-12-18T23:44:35.698Z,10.27
2023-12-18T23:47:11.132Z,10.52
2023-12-18T23:49:37.927Z,10.50
2023-12-18T23:52:04.782Z,10.18
2023-12-18T23:54:31.541Z,9.65
2023-12-18T23:56:58.243Z,9.98
2023-12-18T23:59:24.937Z,10.93
